• Join FlightAware (Why Join?)
  • Login
  • US Flag 
03:15PM EDT


 

Airport Tracker/Info


-or-


 

Live Flight TrackerFlight Track Log ✈ AAY829 ✈ 25-Jul-2014 ✈ KGSP - KPIE

Flight Track Log - Related Links

Times and Time Zones

All times are in EDT time to prevent confusion due to time zone crossing. See the AAY829 flight status page for this flight to view local times or setup timezone preferences in your user account.

Time Position Orientation Groundspeed Altitude Reporting Facility
EDT Latitude Longitude Course Direction KTS MPH feet Rate Location/Type
02:44PM 34.8308 -82.2422 180° South 198 228 3,200  Level Atlanta Center
02:45PM 34.7636 -82.2183 164° South 266 306 5,100 2,520 Climbing Atlanta Center
02:46PM 34.6881 -82.1872 161° South 282 325 8,300 2,760 Climbing Atlanta Center
02:47PM 34.6106 -82.1533 160° South 287 330 10,700 1,800 Climbing Atlanta Center
02:48PM 34.5183 -82.1328 170° South 304 350 12,000 1,800 Climbing Atlanta Center
02:49PM 34.4203 -82.1375 182° South 337 388 14,300 2,040 Climbing Atlanta Center
02:50PM 34.2343 -82.2664 180° South  Level Estimated
02:50PM 34.3139 -82.1425 182° South 362 417 16,100  Level Atlanta Center
02:51PM 34.2097 -82.1447 181° South 376 433 17,000 720 Climbing Atlanta Center
02:52PM 34.1033 -82.1497 182° South 386 444 17,600 1,140 Climbing Atlanta Center
02:53PM 33.9928 -82.1522 181° South 386 444 19,300 1,740 Climbing Atlanta Center
02:54PM 33.8819 -82.1547 181° South 392 451 21,100 1,680 Climbing Atlanta Center
02:55PM 33.7653 -82.1597 182° South 405 466 22,700 1,200 Climbing Atlanta Center
02:56PM 33.6506 -82.1697 184° South 417 480 23,600 1,260 Climbing Atlanta Center
02:57PM 33.5339 -82.1897 188° South 422 486 25,300 1,740 Climbing Atlanta Center
02:58PM 33.4194 -82.2094 188° South 422 486 27,100 1,440 Climbing Atlanta Center
02:59PM 33.3069 -82.2267 187° South 422 486 28,200 720 Climbing Atlanta Center
03:00PM 33.1842 -82.2467 188° South 429 494 28,600 540 Climbing Atlanta Center
03:01PM 33.0592 -82.2667 188° South 442 509 29,300 900 Climbing Atlanta Center
03:02PM 32.9281 -82.2892 188° South 463 533 30,400 960 Climbing Atlanta Center
03:03PM 32.7989 -82.3114 188° South 475 547 31,300 1,080 Climbing Atlanta Center
03:04PM 32.6656 -82.3289 186° South 480 552 32,600 1,320 Climbing Atlanta Center
03:05PM 32.5344 -82.3511 188° South 480 552 34,000 480 Climbing Atlanta Center
03:07PM 32.2992 -82.3886 188° South 455 524 34,000  Level Jacksonville Center
03:08PM 32.1697 -82.4092 188° South 461 531 34,000  Level Jacksonville Center
03:09PM 32.0406 -82.4294 188° South 467 537 34,000  Level Jacksonville Center
03:10PM 31.9069 -82.4519 188° South 467 537 34,000  Level Jacksonville Center
03:11PM 31.7794 -82.4697 187° South 467 537 34,000  Level Jacksonville Center
03:12PM 31.6544 -82.4900 188° South 467 537 34,000  Level Jacksonville Center
03:13PM 31.5250 -82.5075 187° South 467 537 34,000  Level Jacksonville Center
03:14PM 31.3997 -82.5128 182° South 467 537 34,000  Level Jacksonville Center
03:15PM 31.2911 -82.5206 184° South 459 528 34,000  Level Jacksonville Center
03:21PM 30.5529 -82.5910 184° South 434 499 34,000  Level FlightAware ADS-B (KMCO)
03:23PM 30.2816 -82.6128 173° South 438 504 34,000 -120 Level FlightAware ADS-B (KMCO)
03:24PM 30.2402 -82.6010 161° South 438 504 33,800 -2,100 Descending FlightAware ADS-B (KMCO)
03:24PM 30.1618 -82.5711 162° South 444 511 31,900 -2,100 Descending FlightAware ADS-B (KMCO)
03:25PM 30.0986 -82.5477 162° South 444 511 30,300 -1,320 Descending FlightAware ADS-B (KMCO)
03:26PM 29.9692 -82.5055 178° South 433 498 29,700 -900 Descending FlightAware ADS-B (KMCO)
03:27PM 29.8886 -82.5125 188° South 434 499 29,100 -960 Descending FlightAware ADS-B (KMCO)
03:28PM 29.7697 -82.5301 187° South 425 489 28,100 -1,020 Descending FlightAware ADS-B (KMCO)
03:28PM 29.7007 -82.5402 187° South 421 484 27,500 -900 Descending FlightAware ADS-B (KMCO)
03:29PM 29.6139 -82.5527 185° South 415 478 27,000 -660 Descending FlightAware ADS-B (KMCO)
03:30PM 29.5280 -82.5610 185° South 410 472 26,600 -1,320 Descending FlightAware ADS-B (KMCO)
03:30PM 29.4583 -82.5686 185° South 404 465 25,200 -1,980 Descending FlightAware ADS-B (KMCO)
03:31PM 29.3914 -82.5756 185° South 422 486 24,000 -1,860 Descending Jacksonville Center
03:32PM 29.2828 -82.5831 183° South 406 467 22,000 -1,620 Descending Jacksonville Center
03:38PM 28.7820 -82.3234 126° Southeast 327 376 12,900 -1,200 Descending FlightAware ADS-B (KMCO)
03:40PM 28.6578 -82.2570 126° Southeast 327 376 12,900  Level FlightAware ADS-B (KMCO)
03:40PM 28.6160 -82.2560 179° South 304 350 12,900  Level FlightAware ADS-B (KMCO)
03:41PM 28.5516 -82.2544 179° South 304 350 12,900 -1,140 Level FlightAware ADS-B (KMCO)
03:43PM 28.4399 -82.3475 247° West 285 328 10,100 -1,440 Descending FlightAware ADS-B (KMCO)
03:44PM 28.4063 -82.4368 247° West 282 325 8,800 -1,440 Descending FlightAware ADS-B (KMCO)
03:46PM 28.3407 -82.6100 247° West 270 311 5,600 -1,500 Descending FlightAware ADS-B (KMCO)
03:47PM 28.3167 -82.6667 247° West 272 313 4,500 -1,440 Descending Tampa TRACON
03:48PM 28.2333 -82.6500 170° South 267 307 3,000 -1,140 Descending Tampa TRACON
03:49PM 28.1667 -82.6500 180° South 265 305 2,300 -720 Descending Tampa TRACON
03:50PM 28.1000 -82.6500 180° South 229 264 1,700 -360 Descending Tampa TRACON
03:51PM 28.0333 -82.6500 180° South 197 227 1,600 -240 Descending Tampa TRACON
03:52PM 28.0000 -82.6667 204° Southwest 159 183 1,300 -540 Descending Tampa TRACON
03:53PM 27.9500 -82.7000 210° Southwest 140 161 600 -720 Descending Tampa TRACON